Cooksville, Illinois
Current Conditions -  °F | °C
As of 8:08 PM on Sunday 25 Jan 2015 (Local Time) from KBMI Reporting Station
Overcast Overcast  
Wind Chill: -10°   Ceiling: 1500
Heat Index: -2°   Visibility: 10mi
Dew Point: -4°   Wind: 22mph
Humidity: 86%   Direction: 30°NNE
Pressure: 29.94"   Gusts: 26mph
Location:  40.54°N, 88.72°W
Report Text: KBMI 260208Z 03019G23KT 10SM OVC015 M02/M04 A2994 RMK AO2
Loading
Personal Weather Stations






























Interactive Weather Map New forecast layout! Learn more

10-Day Weather Forecast

Advertisements
Track Severe Weather on mobile